Time,TemperatureF,DewpointF,PressureIn,WindDirection,WindDirectionDegrees,WindSpeedMPH,WindSpeedGustMPH,Humidity,HourlyPrecipIn,Conditions,Clouds,dailyrainin,SolarRadiationWatts/m^2,SoftwareType,DateUTC
2013-06-05 00:02:00,80.0,66.0,-100.00,SE,142,7.0,11.0,63,0.00,,,0.00,0.000000,,2013-06-05 05:02:00,
2013-06-05 00:32:00,80.0,66.0,-100.00,SSE,152,8.0,14.0,62,0.00,,,0.00,0.000000,,2013-06-05 05:32:00,
2013-06-05 00:42:00,80.0,66.0,-100.00,SSE,152,8.0,14.0,62,0.00,,,0.00,0.000000,,2013-06-05 05:42:00,
2013-06-05 00:52:00,80.0,66.0,-100.00,SSE,152,8.0,14.0,62,0.00,,,0.00,0.000000,,2013-06-05 05:52:00,
2013-06-05 01:02:00,80.0,66.0,-100.00,SSE,152,8.0,14.0,62,0.00,,,0.00,0.000000,,2013-06-05 06:02:00,
2013-06-05 01:32:00,80.0,65.0,-100.00,SSE,155,9.0,16.0,61,0.00,,,0.00,0.000000,,2013-06-05 06:32:00,
2013-06-05 01:42:00,80.0,65.0,-100.00,SSE,155,9.0,16.0,61,0.00,,,0.00,0.000000,,2013-06-05 06:42:00,
2013-06-05 01:52:00,80.0,65.0,-100.00,SSE,155,9.0,16.0,61,0.00,,,0.00,0.000000,,2013-06-05 06:52:00,
2013-06-05 02:02:00,80.0,65.0,-100.00,SSE,155,9.0,16.0,61,0.00,,,0.00,0.000000,,2013-06-05 07:02:00,
2013-06-05 02:32:00,79.0,66.0,-100.00,SSE,147,10.0,17.0,64,0.00,,,0.00,0.000000,,2013-06-05 07:32:00,
2013-06-05 02:42:00,79.0,66.0,-100.00,SSE,147,10.0,17.0,64,0.00,,,0.00,0.000000,,2013-06-05 07:42:00,
2013-06-05 02:52:00,79.0,66.0,-100.00,SSE,147,10.0,17.0,64,0.00,,,0.00,0.000000,,2013-06-05 07:52:00,
2013-06-05 03:02:00,79.0,66.0,-100.00,SSE,147,10.0,17.0,64,0.00,,,0.00,0.000000,,2013-06-05 08:02:00,
2013-06-05 03:32:00,78.0,64.0,-100.00,SSE,159,10.0,18.0,63,0.00,,,0.00,0.000000,,2013-06-05 08:32:00,
2013-06-05 03:42:00,78.0,64.0,-100.00,SSE,159,10.0,18.0,63,0.00,,,0.00,0.000000,,2013-06-05 08:42:00,
2013-06-05 03:52:00,78.0,64.0,-100.00,SSE,159,10.0,18.0,63,0.00,,,0.00,0.000000,,2013-06-05 08:52:00,
2013-06-05 04:02:00,78.0,64.0,-100.00,SSE,159,10.0,18.0,63,0.00,,,0.00,0.000000,,2013-06-05 09:02:00,
2013-06-05 04:33:00,76.0,66.0,-100.00,SSE,164,9.0,15.0,71,0.00,,,0.00,0.000000,,2013-06-05 09:33:00,
2013-06-05 04:43:00,76.0,66.0,-100.00,SSE,164,9.0,15.0,71,0.00,,,0.00,0.000000,,2013-06-05 09:43:00,
2013-06-05 04:53:00,76.0,66.0,-100.00,SSE,164,9.0,15.0,71,0.00,,,0.00,0.000000,,2013-06-05 09:53:00,
2013-06-05 05:03:00,76.0,66.0,-100.00,SSE,164,9.0,15.0,71,0.00,,,0.00,0.000000,,2013-06-05 10:03:00,
2013-06-05 05:33:00,74.0,66.0,-100.00,SSE,164,5.0,12.0,76,0.00,,,0.00,0.000000,,2013-06-05 10:33:00,
2013-06-05 05:43:00,74.0,66.0,-100.00,SSE,164,5.0,12.0,76,0.00,,,0.00,0.000000,,2013-06-05 10:43:00,
2013-06-05 05:53:00,74.0,66.0,-100.00,SSE,164,5.0,12.0,76,0.00,,,0.00,0.000000,,2013-06-05 10:53:00,
2013-06-05 06:02:00,74.0,66.0,-100.00,SSE,164,5.0,12.0,76,0.00,,,0.00,0.000000,,2013-06-05 11:02:00,
2013-06-05 06:33:00,74.0,67.0,-100.00,SSE,154,7.0,11.0,78,0.00,,,0.00,0.000000,,2013-06-05 11:33:00,
2013-06-05 06:42:00,74.0,67.0,-100.00,SSE,154,7.0,11.0,78,0.00,,,0.00,0.000000,,2013-06-05 11:42:00,
2013-06-05 06:52:00,74.0,67.0,-100.00,SSE,154,7.0,11.0,78,0.00,,,0.00,0.000000,,2013-06-05 11:52:00,
2013-06-05 07:02:00,74.0,67.0,-100.00,SSE,154,7.0,11.0,78,0.00,,,0.00,0.000000,,2013-06-05 12:02:00,
2013-06-05 07:32:00,73.0,68.0,-100.00,ESE,103,2.0,9.0,83,0.00,,,0.00,18.000000,,2013-06-05 12:32:00,
2013-06-05 07:44:00,73.0,68.0,-100.00,ESE,103,2.0,9.0,83,0.00,,,0.00,18.000000,,2013-06-05 12:44:00,
2013-06-05 07:52:00,73.0,68.0,-100.00,ESE,103,2.0,9.0,83,0.00,,,0.00,18.000000,,2013-06-05 12:52:00,
2013-06-05 08:02:00,73.0,68.0,-100.00,ESE,103,2.0,9.0,83,0.00,,,0.00,18.000000,,2013-06-05 13:02:00,
2013-06-05 08:33:00,76.0,69.0,-100.00,SE,134,4.0,9.0,78,0.00,,,0.00,132.000000,,2013-06-05 13:33:00,
2013-06-05 08:42:00,76.0,69.0,-100.00,SE,134,4.0,9.0,78,0.00,,,0.00,132.000000,,2013-06-05 13:42:00,
2013-06-05 08:52:00,76.0,69.0,-100.00,SE,134,4.0,9.0,78,0.00,,,0.00,132.000000,,2013-06-05 13:52:00,
2013-06-05 09:02:00,76.0,69.0,-100.00,SE,134,4.0,9.0,78,0.00,,,0.00,132.000000,,2013-06-05 14:02:00,
2013-06-05 09:32:00,79.0,70.0,-100.00,SE,144,4.0,10.0,74,0.00,,,0.00,284.000000,,2013-06-05 14:32:00,
2013-06-05 09:42:00,79.0,70.0,-100.00,SE,144,4.0,10.0,74,0.00,,,0.00,284.000000,,2013-06-05 14:42:00,
2013-06-05 09:52:00,79.0,70.0,-100.00,SE,144,4.0,10.0,74,0.00,,,0.00,284.000000,,2013-06-05 14:52:00,
2013-06-05 10:02:00,79.0,70.0,-100.00,SE,144,4.0,10.0,74,0.00,,,0.00,284.000000,,2013-06-05 15:02:00,
2013-06-05 10:33:00,81.0,69.0,-100.00,SSE,150,5.0,10.0,66,0.00,,,0.00,437.000000,,2013-06-05 15:33:00,
2013-06-05 10:43:00,81.0,69.0,-100.00,SSE,150,5.0,10.0,66,0.00,,,0.00,437.000000,,2013-06-05 15:43:00,
2013-06-05 10:53:00,81.0,69.0,-100.00,SSE,150,5.0,10.0,66,0.00,,,0.00,437.000000,,2013-06-05 15:53:00,
2013-06-05 11:03:00,81.0,69.0,-100.00,SSE,150,5.0,10.0,66,0.00,,,0.00,437.000000,,2013-06-05 16:03:00,
2013-06-05 11:32:00,81.0,66.0,-100.00,ESE,116,4.0,10.0,60,0.00,,,0.00,406.000000,,2013-06-05 16:32:00,
2013-06-05 11:42:00,81.0,66.0,-100.00,ESE,116,4.0,10.0,60,0.00,,,0.00,406.000000,,2013-06-05 16:42:00,
2013-06-05 11:54:00,81.0,66.0,-100.00,ESE,116,4.0,10.0,60,0.00,,,0.00,406.000000,,2013-06-05 16:54:00,
2013-06-05 12:02:00,81.0,66.0,-100.00,ESE,116,4.0,10.0,60,0.00,,,0.00,406.000000,,2013-06-05 17:02:00,
2013-06-05 12:33:00,84.0,68.0,-100.00,East,87,2.0,8.0,59,0.00,,,0.00,449.000000,,2013-06-05 17:33:00,
2013-06-05 12:43:00,84.0,68.0,-100.00,East,87,2.0,8.0,59,0.00,,,0.00,449.000000,,2013-06-05 17:43:00,
2013-06-05 12:52:00,84.0,68.0,-100.00,East,87,2.0,8.0,59,0.00,,,0.00,449.000000,,2013-06-05 17:52:00,
2013-06-05 13:02:00,84.0,68.0,-100.00,East,87,2.0,8.0,59,0.00,,,0.00,449.000000,,2013-06-05 18:02:00,
2013-06-05 14:32:00,92.0,69.0,-100.00,SE,135,6.0,15.0,47,-99.99,,,0.00,1075.000000,,2013-06-05 19:32:00,
2013-06-05 15:32:00,85.0,64.0,-100.00,SE,137,13.0,23.0,49,0.00,,,0.00,453.000000,,2013-06-05 20:32:00,
2013-06-05 15:42:00,85.0,64.0,-100.00,SE,137,13.0,23.0,49,0.00,,,0.00,453.000000,,2013-06-05 20:42:00,
2013-06-05 15:52:00,85.0,64.0,-100.00,SE,137,13.0,23.0,49,0.00,,,0.00,453.000000,,2013-06-05 20:52:00,
2013-06-05 16:02:00,85.0,64.0,-100.00,SE,137,13.0,23.0,49,0.00,,,0.00,453.000000,,2013-06-05 21:02:00,
2013-06-05 16:33:00,90.0,67.0,-100.00,SSE,164,13.0,23.0,47,0.00,,,0.00,782.000000,,2013-06-05 21:33:00,
2013-06-05 16:43:00,90.0,67.0,-100.00,SSE,164,13.0,23.0,47,0.00,,,0.00,782.000000,,2013-06-05 21:43:00,
2013-06-05 16:53:00,90.0,67.0,-100.00,SSE,164,13.0,23.0,47,0.00,,,0.00,782.000000,,2013-06-05 21:53:00,
2013-06-05 17:02:00,90.0,67.0,-100.00,SSE,164,13.0,23.0,47,0.00,,,0.00,782.000000,,2013-06-05 22:02:00,
2013-06-05 17:33:00,93.0,67.0,-100.00,South,185,7.0,19.0,43,0.00,,,0.00,561.000000,,2013-06-05 22:33:00,
2013-06-05 17:43:00,93.0,67.0,-100.00,South,185,7.0,19.0,43,0.00,,,0.00,561.000000,,2013-06-05 22:43:00,
2013-06-05 17:53:00,93.0,67.0,-100.00,South,185,7.0,19.0,43,0.00,,,0.00,561.000000,,2013-06-05 22:53:00,
2013-06-05 18:02:00,93.0,67.0,-100.00,South,185,7.0,19.0,43,0.00,,,0.00,561.000000,,2013-06-05 23:02:00,
2013-06-05 18:32:00,93.0,64.0,-100.00,SSE,167,6.0,13.0,39,0.00,,,0.00,429.000000,,2013-06-05 23:32:00,
2013-06-05 18:42:00,93.0,64.0,-100.00,SSE,167,6.0,13.0,39,0.00,,,0.00,429.000000,,2013-06-05 23:42:00,
2013-06-05 18:53:00,93.0,64.0,-100.00,SSE,167,6.0,13.0,39,0.00,,,0.00,429.000000,,2013-06-05 23:53:00,
2013-06-05 19:02:00,93.0,64.0,-100.00,SSE,167,6.0,13.0,39,0.00,,,0.00,429.000000,,2013-06-06 00:02:00,
2013-06-05 19:32:00,90.0,61.0,-100.00,SSE,159,6.0,12.0,38,0.00,,,0.00,324.000000,,2013-06-06 00:32:00,
2013-06-05 19:43:00,90.0,61.0,-100.00,SSE,159,6.0,12.0,38,0.00,,,0.00,324.000000,,2013-06-06 00:43:00,
2013-06-05 19:52:00,90.0,61.0,-100.00,SSE,159,6.0,12.0,38,0.00,,,0.00,324.000000,,2013-06-06 00:52:00,
2013-06-05 20:02:00,90.0,61.0,-100.00,SSE,159,6.0,12.0,38,0.00,,,0.00,324.000000,,2013-06-06 01:02:00,
2013-06-05 20:32:00,86.0,62.0,-100.00,SSE,154,3.0,9.0,45,0.00,,,0.00,123.000000,,2013-06-06 01:32:00,
2013-06-05 20:42:00,86.0,62.0,-100.00,SSE,154,3.0,9.0,45,0.00,,,0.00,123.000000,,2013-06-06 01:42:00,
2013-06-05 20:53:00,86.0,62.0,-100.00,SSE,154,3.0,9.0,45,0.00,,,0.00,123.000000,,2013-06-06 01:53:00,
2013-06-05 21:02:00,86.0,62.0,-100.00,SSE,154,3.0,9.0,45,0.00,,,0.00,123.000000,,2013-06-06 02:02:00,
2013-06-05 21:32:00,81.0,65.0,-100.00,SE,141,3.0,7.0,58,0.00,,,0.00,7.000000,,2013-06-06 02:32:00,
2013-06-05 21:42:00,81.0,65.0,-100.00,SE,141,3.0,7.0,58,0.00,,,0.00,7.000000,,2013-06-06 02:42:00,
2013-06-05 21:52:00,81.0,65.0,-100.00,SE,141,3.0,7.0,58,0.00,,,0.00,7.000000,,2013-06-06 02:52:00,
2013-06-05 22:02:00,81.0,65.0,-100.00,SE,141,3.0,7.0,58,0.00,,,0.00,7.000000,,2013-06-06 03:02:00,
2013-06-05 22:33:00,81.0,63.0,-100.00,SSE,150,4.0,7.0,54,0.00,,,0.00,0.000000,,2013-06-06 03:33:00,
2013-06-05 22:43:00,81.0,63.0,-100.00,SSE,150,4.0,7.0,54,0.00,,,0.00,0.000000,,2013-06-06 03:43:00,
2013-06-05 22:53:00,81.0,63.0,-100.00,SSE,150,4.0,7.0,54,0.00,,,0.00,0.000000,,2013-06-06 03:53:00,
2013-06-05 23:03:00,81.0,63.0,-100.00,SSE,150,4.0,7.0,54,0.00,,,0.00,0.000000,,2013-06-06 04:03:00,
2013-06-05 23:33:00,80.0,64.0,-100.00,SE,142,4.0,7.0,59,0.00,,,0.00,0.000000,,2013-06-06 04:33:00,
2013-06-05 23:42:00,80.0,64.0,-100.00,SE,142,4.0,7.0,59,0.00,,,0.00,0.000000,,2013-06-06 04:42:00,
2013-06-05 23:53:00,80.0,64.0,-100.00,SE,142,4.0,7.0,59,0.00,,,0.00,0.000000,,2013-06-06 04:53:00,